Terminal Aerodrome Forecast
Issued by NWS

Home | Current Version | Previous Version | Graphics & Text | Print | Product List | Glossary Off
Versions: 1 2 3 4 5 6 7 8 9 10 11 12 13 14

000
FTUS43 KIWX 300500
TAFSBN
TAF
KSBN 300538Z 3006/3106 29012G18KT P6SM SCT025 BKN050
     FM301000 26010KT P6SM SCT250
     FM301600 28012G20KT P6SM SCT060
     FM310000 19008KT P6SM BKN050
     FM310400 21015KT P6SM BKN060 WS020/25055KT=

USA.gov is the U.S. government's official web portal to all federal, state and local government web resources and services.